Nord 4841'20'' Est 207'19'' alt. 163 m
Donnes mto: Actuelle samedi, 22/06/2019 07:20
Date Horaire Temp. Soleil Temp. Ext. Dif. Solaire Hum. Ext. P.atmo. Pluie Vent Direction Direction Ensoleill P. de rose
22/06/2019 07:20 24,2 C 12,1 C 12,1 C 87 % 1020,5 mbar 0,0 mm 4,0 km/h NO 315 60 min 10,0 C
22/06/2019 06:20 13,4 C 11,5 C 1,9 C 86 % 1020,5 mbar 0,0 mm 2,5 km/h N 360 10 min 9,2 C
22/06/2019 05:20 12,2 C 12,9 C 0,0 C 81 % 1020,6 mbar 0,0 mm 0,0 km/h NE 45 0 min 9,7 C
22/06/2019 04:20 12,8 C 13,3 C 0,0 C 78 % 1020,8 mbar 0,0 mm 0,0 km/h NE 45 0 min 9,5 C
22/06/2019 03:20 13,3 C 13,8 C 0,0 C 75 % 1021,1 mbar 0,0 mm 0,0 km/h NO 315 0 min 9,4 C
22/06/2019 02:20 13,9 C 14,2 C 0,0 C 72 % 1021,2 mbar 0,0 mm 1,1 km/h O-NO 292 0 min 9,2 C
22/06/2019 01:20 14,4 C 14,6 C 0,0 C 71 % 1021,4 mbar 0,0 mm 2,2 km/h O-NO 292 0 min 9,4 C
22/06/2019 00:20 14,4 C 15,2 C 0,0 C 69 % 1021,2 mbar 0,0 mm 0,0 km/h O 270 0 min 9,6 C
21/06/2019 23:20 15,8 C 16,2 C 0,0 C 63 % 1021,2 mbar 0,0 mm 2,5 km/h NE 45 0 min 9,1 C
21/06/2019 22:20 16,8 C 17,0 C 0,0 C 62 % 1020,7 mbar 0,0 mm 1,4 km/h N-NO 337 25 min 9,7 C
21/06/2019 21:20 21,3 C 18,9 C 2,4 C 52 % 1020,1 mbar 0,0 mm 1,4 km/h N-NO 337 55 min 8,8 C
21/06/2019 20:20 35,1 C 20,4 C 14,7 C 49 % 1019,7 mbar 0,0 mm 2,5 km/h N-NE 22 50 min 9,3 C
21/06/2019 19:20 23,7 C 19,3 C 4,4 C 52 % 1019,7 mbar 0,0 mm 2,2 km/h NO 315 0 min 9,2 C
21/06/2019 18:20 28,5 C 21,5 C 7,0 C 47 % 1019,9 mbar 0,0 mm 6,1 km/h N-NO 337 40 min 9,7 C
21/06/2019 17:20 44,1 C 23,0 C 21,1 C 41 % 1019,8 mbar 0,0 mm 3,2 km/h E-NE 67 35 min 9,0 C
21/06/2019 16:20 40,1 C 22,8 C 17,3 C 42 % 1019,8 mbar 0,0 mm 6,1 km/h N 360 60 min 9,2 C
21/06/2019 15:20 38,2 C 22,1 C 16,1 C 43 % 1020,1 mbar 0,0 mm 1,4 km/h N 360 45 min 8,9 C
21/06/2019 14:20 46,1 C 22,9 C 23,2 C 45 % 1020,1 mbar 0,0 mm 2,2 km/h N-NO 337 50 min 10,3 C
21/06/2019 13:20 30,1 C 20,4 C 9,7 C 47 % 1020,2 mbar 0,0 mm 4,7 km/h N 360 55 min 8,7 C
21/06/2019 12:20 36,4 C 21,8 C 14,6 C 58 % 1020,6 mbar 0,0 mm 9,7 km/h N-NO 337 55 min 13,2 C
21/06/2019 11:20 35,9 C 19,1 C 16,8 C 56 % 1020,5 mbar 0,0 mm 5,8 km/h NO 315 60 min 10,1 C
21/06/2019 10:20 40,0 C 19,7 C 20,3 C 66 % 1020,4 mbar 0,0 mm 2,2 km/h O 270 60 min 13,2 C
21/06/2019 09:20 34,8 C 18,7 C 16,1 C 68 % 1020,2 mbar 0,0 mm 1,4 km/h NE 45 60 min 12,7 C
21/06/2019 08:20 30,0 C 14,8 C 15,2 C 82 % 1020,0 mbar 0,0 mm 2,5 km/h NO 315 20 min 11,8 C
21/06/2019 08:00 29,3 C 12,7 C 16,6 C 87 % 1019,9 mbar 0,0 mm 3,2 km/h N 360 0 min 10,6 C
_ Min-Heure 05:40 06:25 21:55 17:55 20:00 - 08:05 - - - 13:25
Minimum _ 11,7 C 11,4 C 0,0 C 39 % 1019,5 mbar - 0,0 km/h - - - 8,2 C
_ Max-Heure 16:15 15:40 16:15 08:05 00:35 08:00 10:35 - - 08:05 09:05
Maximum _ 46,7 C 23,9 C 23,8 C 88 % 1021,5 mbar 0,0 mm 13,7 km/h
O-NO
- - 5 min 13,6 C
Moyenne _ 27,2 C 17,5 C 9,9 C 64 % 1020,4 mbar #0,0 mm 2,5 km/h N-NO - #1:10 h 10,0 C